Hlavní strana
METAR-TAF:

METAR-TAF

Letiště :

Bamako, Mali

zeměpisná šířka: 12-32N, zeměpisná délka: 007-57W, výška: 380 m

Aktuální stav počasí

Zpráva byla vytvořena před 29 minutami, v 14:00 UTC
Jihojihozápadní vítr 5 kt
Teplota 40°C
Vlhkost vzduchu 22%
Tlak 1010 hPa
Viditelnost 10 km a více
Skoro jasno ve výšce 3000 ft

METAR: GABS 221400Z 20005KT 9999 FEW030 40/14 Q1010 NOSIG

Čas: 14:29 (14:29 UTC)

Předpověď počasí

Zpráva byla vytvořena před 3 hodinami a 29 minutami, v 11:00 UTC
Předpověď platná od 22 v 12 UTC do 23 v 18 UTC
Jihojihovýchodní vítr 10 kt
Viditelnost 10 km a více
Skoro jasno ve výšce 3000 ft
Pravděpodobnost 40% :
Dočasný
od 22 v 15 UTC do 22 v 24 UTC
Polojasno ve výšce 3000 ft
Polojasno ve výšce 3300 ft, Cumulonimbus.
bouřka, déšť

TAF: GABS 221100Z 2212/2318 16010KT 9999 FEW030 PROB40 TEMPO 2215/2224 TSRA SCT030 SCT033CB

Stav a předpovědi počasí z více než 4 000 letišť (zprávy METAR a TAF).

Červené a žluté tečky na mapě představují dostupné meteorologické stanice.

Když kurzor umístíte na tečku, zobrazí se název stanice.

Pak kliknutím zobrazíte stav a předpověď počasí.

Chcete-li změnit mapu, kliknutím na zelené tlačítko se znaménkem +mapu přiblížíte, kliknutím na zelené tlačítko se znaménkem – mapu oddálíte a kliknutím na zelené šipky přejdete na sousední mapy.


METAR-TAF: